sensor_id;sensor_type;location;lat;lon;timestamp;pressure;altitude;pressure_sealevel;temperature;humidity
84415;BME280;74706;51.520;17.224;2024-01-30T00:06:42;101958.94;;;1.32;67.93
84415;BME280;74706;51.520;17.224;2024-01-30T00:15:04;101956.28;;;1.09;68.39
84415;BME280;74706;51.520;17.224;2024-01-30T00:23:30;101958.13;;;0.93;69.06
84415;BME280;74706;51.520;17.224;2024-01-30T00:31:51;101960.72;;;0.73;69.41
84415;BME280;74706;51.520;17.224;2024-01-30T00:40:15;101957.47;;;0.58;69.29
84415;BME280;74706;51.520;17.224;2024-01-30T00:48:36;101968.34;;;0.33;69.93
84415;BME280;74706;51.520;17.224;2024-01-30T00:56:58;101963.84;;;0.09;70.58
84415;BME280;74706;51.520;17.224;2024-01-30T01:05:21;101957.91;;;-0.08;70.87
84415;BME280;74706;51.520;17.224;2024-01-30T01:13:43;101951.97;;;-0.25;71.47
84415;BME280;74706;51.520;17.224;2024-01-30T01:22:07;101955.28;;;-0.45;72.17
84415;BME280;74706;51.520;17.224;2024-01-30T01:30:29;101954.59;;;-0.59;72.79
84415;BME280;74706;51.520;17.224;2024-01-30T01:38:52;101956.50;;;-0.73;72.79
84415;BME280;74706;51.520;17.224;2024-01-30T01:47:15;101942.41;;;-0.81;73.68
84415;BME280;74706;51.520;17.224;2024-01-30T01:55:40;101943.25;;;-0.98;73.69
84415;BME280;74706;51.520;17.224;2024-01-30T02:04:07;101949.00;;;-1.02;74.66
84415;BME280;74706;51.520;17.224;2024-01-30T02:12:30;101958.28;;;-1.04;75.37
84415;BME280;74706;51.520;17.224;2024-01-30T02:20:53;101958.88;;;-1.10;75.21
84415;BME280;74706;51.520;17.224;2024-01-30T02:29:17;101965.53;;;-1.14;75.36
84415;BME280;74706;51.520;17.224;2024-01-30T02:37:43;101960.75;;;-1.24;75.20
84415;BME280;74706;51.520;17.224;2024-01-30T02:46:05;101960.34;;;-1.31;75.50
84415;BME280;74706;51.520;17.224;2024-01-30T02:54:27;101952.78;;;-1.45;75.51
84415;BME280;74706;51.520;17.224;2024-01-30T03:02:53;101957.50;;;-1.52;75.60
84415;BME280;74706;51.520;17.224;2024-01-30T03:11:15;101948.31;;;-1.65;75.58
84415;BME280;74706;51.520;17.224;2024-01-30T03:19:37;101936.91;;;-1.70;75.75
84415;BME280;74706;51.520;17.224;2024-01-30T03:27:58;101922.56;;;-1.83;76.39
84415;BME280;74706;51.520;17.224;2024-01-30T03:36:23;101927.53;;;-1.86;76.88
84415;BME280;74706;51.520;17.224;2024-01-30T03:44:49;101928.56;;;-1.99;76.89
84415;BME280;74706;51.520;17.224;2024-01-30T03:53:14;101931.41;;;-2.09;76.97
84415;BME280;74706;51.520;17.224;2024-01-30T04:01:38;101930.97;;;-2.17;77.60
84415;BME280;74706;51.520;17.224;2024-01-30T04:10:00;101931.19;;;-2.29;78.62
84415;BME280;74706;51.520;17.224;2024-01-30T04:18:21;101931.66;;;-2.36;78.78
84415;BME280;74706;51.520;17.224;2024-01-30T04:26:49;101940.28;;;-2.34;79.01
84415;BME280;74706;51.520;17.224;2024-01-30T04:35:11;101930.03;;;-2.34;79.19
84415;BME280;74706;51.520;17.224;2024-01-30T04:43:33;101937.31;;;-2.41;78.55
84415;BME280;74706;51.520;17.224;2024-01-30T04:51:58;101930.00;;;-2.50;79.03
84415;BME280;74706;51.520;17.224;2024-01-30T05:00:20;101934.13;;;-2.52;78.91
84415;BME280;74706;51.520;17.224;2024-01-30T05:08:47;101922.59;;;-2.60;78.85
84415;BME280;74706;51.520;17.224;2024-01-30T05:17:12;101925.63;;;-2.67;79.67
84415;BME280;74706;51.520;17.224;2024-01-30T05:25:35;101931.31;;;-2.72;79.73
84415;BME280;74706;51.520;17.224;2024-01-30T05:33:57;101924.19;;;-2.77;80.05
84415;BME280;74706;51.520;17.224;2024-01-30T05:42:19;101923.19;;;-2.79;80.02
84415;BME280;74706;51.520;17.224;2024-01-30T05:50:41;101927.19;;;-2.84;79.93
84415;BME280;74706;51.520;17.224;2024-01-30T05:59:03;101924.09;;;-2.94;80.33
84415;BME280;74706;51.520;17.224;2024-01-30T06:07:27;101930.81;;;-2.96;80.47
84415;BME280;74706;51.520;17.224;2024-01-30T06:15:54;101933.09;;;-3.00;80.63
84415;BME280;74706;51.520;17.224;2024-01-30T06:24:17;101944.72;;;-3.05;81.42
84415;BME280;74706;51.520;17.224;2024-01-30T06:32:40;101958.50;;;-3.03;81.13
84415;BME280;74706;51.520;17.224;2024-01-30T06:41:03;101961.75;;;-3.06;81.33
84415;BME280;74706;51.520;17.224;2024-01-30T06:49:26;101980.34;;;-3.08;81.22
84415;BME280;74706;51.520;17.224;2024-01-30T06:57:50;101971.69;;;-3.10;81.36
84415;BME280;74706;51.520;17.224;2024-01-30T07:06:14;101980.25;;;-3.10;81.16
84415;BME280;74706;51.520;17.224;2024-01-30T07:14:35;101985.34;;;-3.10;81.13
84415;BME280;74706;51.520;17.224;2024-01-30T07:22:58;101988.91;;;-3.08;81.61
84415;BME280;74706;51.520;17.224;2024-01-30T07:31:21;101983.19;;;-3.04;81.61
84415;BME280;74706;51.520;17.224;2024-01-30T07:39:44;101975.75;;;-2.99;81.96
84415;BME280;74706;51.520;17.224;2024-01-30T07:48:08;101971.09;;;-2.91;82.79
84415;BME280;74706;51.520;17.224;2024-01-30T07:56:30;101957.09;;;-2.83;83.04
84415;BME280;74706;51.520;17.224;2024-01-30T08:04:53;101963.25;;;-2.65;83.56
84415;BME280;74706;51.520;17.224;2024-01-30T08:13:22;101949.31;;;-2.40;84.85
84415;BME280;74706;51.520;17.224;2024-01-30T08:21:47;101943.22;;;-2.28;84.58
84415;BME280;74706;51.520;17.224;2024-01-30T08:30:09;101944.84;;;-1.82;85.67
84415;BME280;74706;51.520;17.224;2024-01-30T08:38:32;101940.38;;;-1.21;86.45
84415;BME280;74706;51.520;17.224;2024-01-30T08:46:54;101934.16;;;-0.39;85.83
84415;BME280;74706;51.520;17.224;2024-01-30T08:55:17;101924.63;;;0.33;83.07
84415;BME280;74706;51.520;17.224;2024-01-30T09:03:40;101933.16;;;0.90;79.71
84415;BME280;74706;51.520;17.224;2024-01-30T09:12:05;101930.63;;;1.32;75.99
84415;BME280;74706;51.520;17.224;2024-01-30T09:20:31;101914.16;;;1.93;72.79
84415;BME280;74706;51.520;17.224;2024-01-30T09:28:54;101904.66;;;2.38;70.50
84415;BME280;74706;51.520;17.224;2024-01-30T09:37:19;101903.78;;;2.86;68.21
84415;BME280;74706;51.520;17.224;2024-01-30T09:45:42;101891.94;;;3.18;67.47
84415;BME280;74706;51.520;17.224;2024-01-30T09:54:17;101900.09;;;3.57;65.95
84415;BME280;74706;51.520;17.224;2024-01-30T10:02:40;101889.84;;;3.88;64.73
84415;BME280;74706;51.520;17.224;2024-01-30T10:11:09;101887.66;;;4.00;62.67
84415;BME280;74706;51.520;17.224;2024-01-30T10:19:33;101872.28;;;4.06;62.83
84415;BME280;74706;51.520;17.224;2024-01-30T10:28:00;101872.50;;;4.14;62.13
84415;BME280;74706;51.520;17.224;2024-01-30T10:36:27;101852.28;;;4.31;61.27
84415;BME280;74706;51.520;17.224;2024-01-30T10:45:06;101845.53;;;4.67;61.12
84415;BME280;74706;51.520;17.224;2024-01-30T10:53:31;101850.88;;;5.08;60.46
84415;BME280;74706;51.520;17.224;2024-01-30T11:01:55;101830.09;;;5.43;59.22
84415;BME280;74706;51.520;17.224;2024-01-30T11:10:18;101823.28;;;5.86;58.01
84415;BME280;74706;51.520;17.224;2024-01-30T11:18:41;101803.94;;;6.11;56.62
84415;BME280;74706;51.520;17.224;2024-01-30T11:27:08;101797.38;;;6.32;56.02
84415;BME280;74706;51.520;17.224;2024-01-30T11:35:40;101785.44;;;6.41;56.07
84415;BME280;74706;51.520;17.224;2024-01-30T11:44:03;101776.22;;;6.57;56.41
84415;BME280;74706;51.520;17.224;2024-01-30T11:52:29;101762.81;;;6.86;55.80
84415;BME280;74706;51.520;17.224;2024-01-30T12:00:55;101756.31;;;7.12;54.84
84415;BME280;74706;51.520;17.224;2024-01-30T12:09:19;101753.88;;;7.25;53.29
84415;BME280;74706;51.520;17.224;2024-01-30T12:17:42;101743.66;;;7.35;53.35
84415;BME280;74706;51.520;17.224;2024-01-30T12:26:06;101738.47;;;7.40;53.90
84415;BME280;74706;51.520;17.224;2024-01-30T12:34:29;101722.06;;;7.43;53.86
84415;BME280;74706;51.520;17.224;2024-01-30T12:42:54;101711.94;;;7.66;54.10
84415;BME280;74706;51.520;17.224;2024-01-30T12:51:21;101703.44;;;7.80;52.35
84415;BME280;74706;51.520;17.224;2024-01-30T12:59:47;101701.09;;;8.03;52.29
84415;BME280;74706;51.520;17.224;2024-01-30T13:08:13;101704.75;;;8.24;51.60
84415;BME280;74706;51.520;17.224;2024-01-30T13:16:36;101697.13;;;8.41;51.27
84415;BME280;74706;51.520;17.224;2024-01-30T13:24:58;101691.91;;;8.41;52.58
84415;BME280;74706;51.520;17.224;2024-01-30T13:33:20;101686.66;;;8.38;51.20
84415;BME280;74706;51.520;17.224;2024-01-30T13:41:43;101687.50;;;8.38;52.18
84415;BME280;74706;51.520;17.224;2024-01-30T13:50:05;101690.13;;;8.37;51.34
84415;BME280;74706;51.520;17.224;2024-01-30T13:58:30;101673.56;;;8.33;50.62
84415;BME280;74706;51.520;17.224;2024-01-30T14:06:51;101665.78;;;8.35;51.54
84415;BME280;74706;51.520;17.224;2024-01-30T14:15:13;101663.13;;;8.25;51.18
84415;BME280;74706;51.520;17.224;2024-01-30T14:23:38;101670.00;;;8.20;51.26
84415;BME280;74706;51.520;17.224;2024-01-30T14:32:02;101666.47;;;8.12;51.82
84415;BME280;74706;51.520;17.224;2024-01-30T14:40:51;101664.63;;;8.00;52.03
84415;BME280;74706;51.520;17.224;2024-01-30T14:49:13;101672.25;;;7.83;53.34
84415;BME280;74706;51.520;17.224;2024-01-30T14:57:39;101679.06;;;7.72;53.48
84415;BME280;74706;51.520;17.224;2024-01-30T15:06:07;101669.38;;;7.59;52.11
84415;BME280;74706;51.520;17.224;2024-01-30T15:14:33;101677.00;;;7.44;53.36
84415;BME280;74706;51.520;17.224;2024-01-30T15:22:57;101677.63;;;7.24;54.55
84415;BME280;74706;51.520;17.224;2024-01-30T15:31:22;101676.44;;;7.02;54.35
84415;BME280;74706;51.520;17.224;2024-01-30T15:39:43;101680.50;;;6.83;54.94
84415;BME280;74706;51.520;17.224;2024-01-30T15:48:09;101684.34;;;6.50;54.89
84415;BME280;74706;51.520;17.224;2024-01-30T15:56:33;101700.31;;;6.25;56.13
84415;BME280;74706;51.520;17.224;2024-01-30T16:04:54;101701.66;;;6.01;57.36
84415;BME280;74706;51.520;17.224;2024-01-30T16:13:22;101698.53;;;5.77;57.84
84415;BME280;74706;51.520;17.224;2024-01-30T16:21:44;101702.34;;;5.50;59.73
84415;BME280;74706;51.520;17.224;2024-01-30T16:30:12;101708.72;;;5.25;60.50
84415;BME280;74706;51.520;17.224;2024-01-30T16:38:35;101710.06;;;5.08;59.63
84415;BME280;74706;51.520;17.224;2024-01-30T16:46:56;101703.78;;;4.97;59.81
84415;BME280;74706;51.520;17.224;2024-01-30T16:55:23;101708.63;;;4.83;60.45
84415;BME280;74706;51.520;17.224;2024-01-30T17:03:51;101703.19;;;4.70;61.15
84415;BME280;74706;51.520;17.224;2024-01-30T17:12:13;101701.97;;;4.56;61.61
84415;BME280;74706;51.520;17.224;2024-01-30T17:20:35;101706.75;;;4.41;62.18
84415;BME280;74706;51.520;17.224;2024-01-30T17:29:01;101699.63;;;4.32;62.42
84415;BME280;74706;51.520;17.224;2024-01-30T17:37:29;101691.75;;;4.27;62.47
84415;BME280;74706;51.520;17.224;2024-01-30T17:45:54;101695.84;;;4.19;62.80
84415;BME280;74706;51.520;17.224;2024-01-30T17:54:17;101683.59;;;4.12;63.21
84415;BME280;74706;51.520;17.224;2024-01-30T18:02:48;101685.25;;;4.09;63.08
84415;BME280;74706;51.520;17.224;2024-01-30T18:11:13;101678.22;;;4.03;63.25
84415;BME280;74706;51.520;17.224;2024-01-30T18:19:35;101686.13;;;4.09;63.42
84415;BME280;74706;51.520;17.224;2024-01-30T18:27:58;101692.16;;;4.10;63.31
84415;BME280;74706;51.520;17.224;2024-01-30T18:36:23;101680.09;;;4.10;63.21
84415;BME280;74706;51.520;17.224;2024-01-30T18:44:46;101676.69;;;4.11;63.06
84415;BME280;74706;51.520;17.224;2024-01-30T18:53:09;101675.06;;;4.15;63.37
84415;BME280;74706;51.520;17.224;2024-01-30T19:01:30;101680.25;;;4.16;62.79
84415;BME280;74706;51.520;17.224;2024-01-30T19:10:03;101674.19;;;4.14;62.45
84415;BME280;74706;51.520;17.224;2024-01-30T19:18:29;101681.03;;;4.14;62.23
84415;BME280;74706;51.520;17.224;2024-01-30T19:26:52;101678.34;;;4.09;62.20
84415;BME280;74706;51.520;17.224;2024-01-30T19:35:15;101680.72;;;4.00;62.30
84415;BME280;74706;51.520;17.224;2024-01-30T19:43:38;101679.56;;;3.90;62.01
84415;BME280;74706;51.520;17.224;2024-01-30T19:52:08;101690.41;;;3.77;63.19
84415;BME280;74706;51.520;17.224;2024-01-30T20:00:34;101697.97;;;3.69;63.23
84415;BME280;74706;51.520;17.224;2024-01-30T20:09:00;101706.31;;;3.59;63.66
84415;BME280;74706;51.520;17.224;2024-01-30T20:17:28;101712.16;;;3.53;63.79
84415;BME280;74706;51.520;17.224;2024-01-30T20:25:51;101710.44;;;3.52;63.88
84415;BME280;74706;51.520;17.224;2024-01-30T20:34:16;101697.50;;;3.52;63.83
84415;BME280;74706;51.520;17.224;2024-01-30T20:42:40;101704.41;;;3.53;64.05
84415;BME280;74706;51.520;17.224;2024-01-30T20:51:04;101708.72;;;3.53;64.39
84415;BME280;74706;51.520;17.224;2024-01-30T20:59:34;101708.63;;;3.50;64.46
84415;BME280;74706;51.520;17.224;2024-01-30T21:08:00;101709.34;;;3.44;64.97
84415;BME280;74706;51.520;17.224;2024-01-30T21:16:25;101707.53;;;3.42;64.92
84415;BME280;74706;51.520;17.224;2024-01-30T21:24:47;101712.56;;;3.37;65.50
84415;BME280;74706;51.520;17.224;2024-01-30T21:33:11;101710.66;;;3.31;65.70
84415;BME280;74706;51.520;17.224;2024-01-30T21:41:34;101707.13;;;3.28;66.08
84415;BME280;74706;51.520;17.224;2024-01-30T21:49:58;101703.38;;;3.18;66.31
84415;BME280;74706;51.520;17.224;2024-01-30T21:58:20;101717.97;;;3.16;66.25
84415;BME280;74706;51.520;17.224;2024-01-30T22:06:45;101711.78;;;3.11;66.82
84415;BME280;74706;51.520;17.224;2024-01-30T22:15:11;101716.00;;;3.09;66.92
84415;BME280;74706;51.520;17.224;2024-01-30T22:23:39;101716.69;;;3.03;67.19
84415;BME280;74706;51.520;17.224;2024-01-30T22:32:02;101715.50;;;2.92;67.62
84415;BME280;74706;51.520;17.224;2024-01-30T22:40:32;101727.78;;;2.99;67.81
84415;BME280;74706;51.520;17.224;2024-01-30T22:48:58;101736.31;;;2.97;67.79
84415;BME280;74706;51.520;17.224;2024-01-30T22:57:20;101736.31;;;2.97;67.99
84415;BME280;74706;51.520;17.224;2024-01-30T23:05:43;101734.53;;;2.96;68.24
84415;BME280;74706;51.520;17.224;2024-01-30T23:14:04;101748.28;;;2.95;68.50
84415;BME280;74706;51.520;17.224;2024-01-30T23:22:30;101745.53;;;2.90;68.73
84415;BME280;74706;51.520;17.224;2024-01-30T23:30:53;101743.78;;;2.87;68.84
84415;BME280;74706;51.520;17.224;2024-01-30T23:39:18;101753.16;;;2.85;69.14
84415;BME280;74706;51.520;17.224;2024-01-30T23:47:42;101751.28;;;2.81;68.99
84415;BME280;74706;51.520;17.224;2024-01-30T23:56:07;101746.03;;;2.78;69.52
